Pagrindinis puslapis
METAR-TAF:

METAR-TAF

Oro uostai :

Džordžtaunas, Dangun Žengimo sala

platuma: 07-58S, ilguma: 014-24W, Aukštis: 86 m

Dabartinis oras

Ataskaita buvo paskelbta 25 valandos ir 16 minutes, ne 20:50 UTC
Vėjas 10 kt iš Pietryčių
Temperatūra 24°C
Drėgmė 69%
Slėgis 1011 hPa
Matomumas 10 km arba daugiau
Mažai debesys ne aukštis 2500 ft

METAR: FHAW 162050Z 14010KT 9999 FEW025 24/18 Q1011 NOSIG RMK BLU BLU

Laikas: 22:06 (22:06 UTC)

Prognozė

Ataskaita buvo paskelbta 29 valandos ir 36 minutes, ne 16:30 UTC
Prognozė galioja nuo 16 metu 18 UTC su 17 metu 12 UTC
Vėjas 12 kt iš Pietų/Pietryčių
Matomumas 10 km arba daugiau
Mažai debesys ne aukštis 2000 ft

TAF: FHAW 161630Z 1618/1712 15012KT 9999 FEW020

Orai ataskaitas ir orų prognozės (METAR, TAF).

turimą stotys yra geltonos ir raudonos taškus žemėlapyje.

Perkelti pele per norėdami pamatyti stoties vardą.

Tada spustelėkite, norėdami matyti oro stebėjimo ir prognozės.

Norėdami pakeisti žemėlapį: spustelėkite ant žalios mygtukų su juodo kryžiaus žemyn,; žalią mygtuką su brūkšneliu, jei norite nutolinti; arba žalių rodyklių gretimoms žemėlapius.


METAR-TAF: